Fort Indiantown, Pennsylvania
Current Conditions -  °F | °C
As of 8:58 AM on Thursday 23 Oct 2014 (Local Time) from KMUI Reporting Station
Overcast Overcast  
Wind Chill: 52°   Ceiling: 2700
Heat Index: 52°   Visibility: 10mi
Dew Point: 45°   Wind: 8mph
Humidity: 77%   Direction: 330°NNW
Pressure: 29.86"   Gusts: 18mph
Location:  40.3819°N, 76.5718°W
Report Text: KMUI 231258Z AUTO 33007G16KT 310V010 10SM OVC027 11/07 A2986 RMK AO2 SLP115 T01130074 $
Loading
Personal Weather Stations






























Interactive Weather Map
Tropical Storm Tracking
New forecast layout! Learn more

10-Day Weather Forecast

Advertisements
Track Severe Weather on mobile